Time;durP1;ratioP1;P1;durP2;ratioP2;P2;SDS_P1;SDS_P2;PMS_P1;PMS_P2;Temp;Humidity;BMP_temperature;BMP_pressure;BME280_temperature;BME280_humidity;BME280_pressure;Samples;Min_cycle;Max_cycle;Signal;HPM_P1;HPM_P2
2022/10/06 00:01:41;;;;;;;3.87;2.67;;;;;;;;;;5085126;28;20213;-40
2022/10/06 00:04:08;;;;;;;3.90;2.53;;;;;;;;;;5086493;28;20215;-40
2022/10/06 00:06:35;;;;;;;5.73;2.63;;;;;;;;;;5088389;28;20293;-40
2022/10/06 00:09:02;;;;;;;5.27;2.90;;;;;;;;;;5089409;28;20219;-42
2022/10/06 00:11:29;;;;;;;4.00;2.73;;;;;;;;;;5079475;28;20221;-41
2022/10/06 00:13:57;;;;;;;4.23;1.80;;;;;;;;;;5085313;28;20204;-41
2022/10/06 00:16:24;;;;;;;3.00;2.00;;;;;;;;;;5087678;28;20210;-38
2022/10/06 00:18:52;;;;;;;2.70;2.50;;;;;;;;;;5078675;28;20215;-44
2022/10/06 00:21:19;;;;;;;4.03;2.30;;;;;;;;;;5088473;28;20217;-39
2022/10/06 00:23:46;;;;;;;2.93;2.63;;;;;;;;;;5093208;28;20204;-44
2022/10/06 00:26:15;;;;;;;6.33;2.60;;;;;;;;;;5086786;28;20299;-44
2022/10/06 00:28:42;;;;;;;3.07;2.40;;;;;;;;;;5092622;28;20206;-41
2022/10/06 00:31:09;;;;;;;4.23;2.50;;;;;;;;;;5093229;28;20224;-40
2022/10/06 00:33:37;;;;;;;2.53;2.33;;;;;;;;;;5088838;28;20215;-40
2022/10/06 00:36:06;;;;;;;2.37;2.17;;;;;;;;;;5089696;28;20212;-43
2022/10/06 00:38:33;;;;;;;4.37;2.20;;;;;;;;;;5093025;28;20209;-41
2022/10/06 00:41:00;;;;;;;5.17;2.50;;;;;;;;;;5088580;28;20222;-39
2022/10/06 00:43:51;;;;;;;2.80;2.37;;;;;;;;;;5087169;28;20201;-42
2022/10/06 00:46:23;;;;;;;3.27;2.80;;;;;;;;;;5067677;28;20204;-42
2022/10/06 00:48:52;;;;;;;3.53;2.83;;;;;;;;;;5086970;28;20215;-43
2022/10/06 00:51:22;;;;;;;3.27;2.53;;;;;;;;;;5092137;28;20238;-44
2022/10/06 00:53:49;;;;;;;3.37;2.60;;;;;;;;;;5092753;28;20210;-42
2022/10/06 00:56:16;;;;;;;3.43;2.60;;;;;;;;;;5089666;28;20204;-39
2022/10/06 00:58:43;;;;;;;8.33;3.00;;;;;;;;;;5085025;28;20209;-43
2022/10/06 01:01:12;;;;;;;3.07;2.53;;;;;;;;;;5088023;28;20212;-44
2022/10/06 01:03:40;;;;;;;4.33;2.87;;;;;;;;;;5081282;28;20197;-39
2022/10/06 01:06:08;;;;;;;8.07;2.83;;;;;;;;;;5089404;28;20233;-40
2022/10/06 01:08:37;;;;;;;2.67;2.47;;;;;;;;;;5092312;28;20212;-40
2022/10/06 01:11:04;;;;;;;3.33;2.80;;;;;;;;;;5072941;28;20275;-42
2022/10/06 01:13:31;;;;;;;5.93;2.73;;;;;;;;;;5084415;28;20205;-41
2022/10/06 01:16:05;;;;;;;3.53;2.63;;;;;;;;;;5092603;28;20203;-38
2022/10/06 01:18:33;;;;;;;3.00;2.30;;;;;;;;;;5092160;28;20206;-42
2022/10/06 01:21:04;;;;;;;5.40;3.07;;;;;;;;;;5096056;28;20225;-39
2022/10/06 01:23:34;;;;;;;4.00;2.33;;;;;;;;;;5092992;28;20269;-42
2022/10/06 01:26:02;;;;;;;2.40;2.20;;;;;;;;;;5087845;28;20234;-40
2022/10/06 01:28:29;;;;;;;4.60;2.73;;;;;;;;;;5089534;28;20292;-38
2022/10/06 01:30:57;;;;;;;4.93;2.40;;;;;;;;;;5091926;28;20231;-41
2022/10/06 01:33:24;;;;;;;3.27;2.70;;;;;;;;;;5080321;28;20204;-42
2022/10/06 01:35:52;;;;;;;2.73;2.50;;;;;;;;;;5087356;28;20209;-43
2022/10/06 01:38:20;;;;;;;3.70;2.63;;;;;;;;;;5091383;28;20204;-44
2022/10/06 01:40:50;;;;;;;4.73;2.40;;;;;;;;;;5090650;28;20225;-38
2022/10/06 01:43:17;;;;;;;3.07;2.73;;;;;;;;;;5082700;28;20209;-39
2022/10/06 01:45:45;;;;;;;3.73;2.33;;;;;;;;;;5091476;28;20202;-44
2022/10/06 01:48:12;;;;;;;2.60;2.40;;;;;;;;;;5082926;28;20288;-44
2022/10/06 01:50:41;;;;;;;2.77;2.13;;;;;;;;;;5090559;28;20220;-41
2022/10/06 01:53:08;;;;;;;3.70;2.43;;;;;;;;;;5091226;28;20213;-43
2022/10/06 01:55:35;;;;;;;2.27;2.17;;;;;;;;;;5087216;28;20205;-36
2022/10/06 01:58:04;;;;;;;2.63;2.33;;;;;;;;;;5087594;28;20207;-43
2022/10/06 02:00:31;;;;;;;3.10;2.73;;;;;;;;;;5090947;28;20298;-41
2022/10/06 02:02:58;;;;;;;2.43;2.20;;;;;;;;;;5079336;28;20210;-42
2022/10/06 02:05:25;;;;;;;2.40;2.20;;;;;;;;;;5085700;28;20204;-41
2022/10/06 02:07:52;;;;;;;2.20;2.10;;;;;;;;;;5091194;28;20208;-41
2022/10/06 02:10:20;;;;;;;3.90;2.33;;;;;;;;;;5090986;28;20228;-43
2022/10/06 02:12:50;;;;;;;2.50;2.03;;;;;;;;;;5083794;28;20197;-42
2022/10/06 02:15:19;;;;;;;2.17;1.97;;;;;;;;;;5088950;28;20204;-38
2022/10/06 02:17:46;;;;;;;2.53;2.20;;;;;;;;;;5087105;28;20209;-38
2022/10/06 02:20:13;;;;;;;2.97;1.70;;;;;;;;;;5090261;28;20223;-40
2022/10/06 02:22:42;;;;;;;2.57;2.37;;;;;;;;;;5090913;28;20196;-42
2022/10/06 02:25:10;;;;;;;2.77;2.00;;;;;;;;;;5090632;28;20232;-41
2022/10/06 02:27:37;;;;;;;3.03;2.20;;;;;;;;;;5085506;28;20204;-42
2022/10/06 02:30:05;;;;;;;2.27;2.07;;;;;;;;;;5089826;28;20227;-41
2022/10/06 02:32:37;;;;;;;2.20;2.00;;;;;;;;;;5085419;28;20448;-40
2022/10/06 02:35:05;;;;;;;2.00;1.90;;;;;;;;;;5082252;28;20226;-41
2022/10/06 02:37:32;;;;;;;2.70;2.50;;;;;;;;;;5090323;28;20208;-39
2022/10/06 02:39:59;;;;;;;4.53;2.07;;;;;;;;;;5090376;28;20227;-43
2022/10/06 02:42:27;;;;;;;2.00;1.90;;;;;;;;;;5081727;28;20287;-38
2022/10/06 02:44:54;;;;;;;3.03;2.27;;;;;;;;;;5088747;28;20258;-40
2022/10/06 02:47:21;;;;;;;2.50;2.30;;;;;;;;;;5084412;28;20292;-41
2022/10/06 02:49:50;;;;;;;2.70;2.07;;;;;;;;;;5080013;28;20253;-42
2022/10/06 02:52:17;;;;;;;2.27;1.80;;;;;;;;;;5090524;28;20217;-43
2022/10/06 02:54:45;;;;;;;3.57;2.20;;;;;;;;;;5087232;28;20228;-42
2022/10/06 02:57:14;;;;;;;2.80;2.60;;;;;;;;;;5084176;28;20209;-39
2022/10/06 02:59:42;;;;;;;3.37;2.50;;;;;;;;;;5089792;28;20212;-34
2022/10/06 03:02:09;;;;;;;2.33;2.13;;;;;;;;;;5085064;28;20197;-42
2022/10/06 03:04:36;;;;;;;2.77;2.30;;;;;;;;;;5085247;28;20200;-37
2022/10/06 03:07:05;;;;;;;2.67;2.43;;;;;;;;;;5089733;28;20211;-41
2022/10/06 03:09:32;;;;;;;1.90;1.80;;;;;;;;;;5090068;28;20224;-38
2022/10/06 03:12:00;;;;;;;2.17;1.97;;;;;;;;;;5080939;28;20305;-39
2022/10/06 03:14:27;;;;;;;3.83;2.33;;;;;;;;;;5086857;28;20236;-42
2022/10/06 03:16:55;;;;;;;3.60;2.40;;;;;;;;;;5084341;28;20219;-42
2022/10/06 03:19:25;;;;;;;5.23;2.17;;;;;;;;;;5088769;28;20208;-42
2022/10/06 03:21:53;;;;;;;3.97;2.57;;;;;;;;;;5089855;28;20228;-39
2022/10/06 03:24:21;;;;;;;1.83;1.73;;;;;;;;;;5085591;28;20208;-40
2022/10/06 03:26:48;;;;;;;5.20;2.70;;;;;;;;;;5070627;28;20302;-43
2022/10/06 03:29:16;;;;;;;3.80;2.30;;;;;;;;;;5087769;28;20205;-39
2022/10/06 03:31:43;;;;;;;2.07;1.97;;;;;;;;;;5086854;28;20239;-39
2022/10/06 03:34:12;;;;;;;2.27;2.10;;;;;;;;;;5079369;28;20232;-41
2022/10/06 03:36:39;;;;;;;5.93;2.60;;;;;;;;;;5089232;28;20242;-42
2022/10/06 03:39:07;;;;;;;2.33;2.13;;;;;;;;;;5089439;28;20211;-40
2022/10/06 03:41:36;;;;;;;2.10;2.00;;;;;;;;;;5085202;28;20220;-40
2022/10/06 03:44:04;;;;;;;3.57;2.47;;;;;;;;;;5085821;28;20200;-40
2022/10/06 03:46:33;;;;;;;4.00;2.10;;;;;;;;;;5086568;28;20211;-44
2022/10/06 03:49:00;;;;;;;2.07;1.97;;;;;;;;;;5092876;28;20211;-42
2022/10/06 03:53:56;;;;;;;2.40;2.20;;;;;;;;;;5048707;28;20252;-40
2022/10/06 03:56:24;;;;;;;2.83;2.17;;;;;;;;;;5043939;28;20228;-42
2022/10/06 03:58:53;;;;;;;2.20;2.07;;;;;;;;;;5037651;28;20289;-45
2022/10/06 04:01:22;;;;;;;2.80;2.10;;;;;;;;;;5029843;28;20280;-44
2022/10/06 04:03:50;;;;;;;2.40;2.20;;;;;;;;;;5037656;28;20213;-41
2022/10/06 04:06:18;;;;;;;3.13;2.53;;;;;;;;;;5037882;28;20297;-44
2022/10/06 04:08:45;;;;;;;4.53;3.00;;;;;;;;;;5030123;28;20208;-39
2022/10/06 04:11:13;;;;;;;3.07;2.87;;;;;;;;;;5034004;28;20230;-44
2022/10/06 04:13:41;;;;;;;5.93;2.70;;;;;;;;;;5039976;28;20665;-43
2022/10/06 04:16:14;;;;;;;2.60;2.40;;;;;;;;;;5048727;28;20204;-43
2022/10/06 04:18:41;;;;;;;2.50;2.30;;;;;;;;;;5037422;28;20220;-44
2022/10/06 04:21:09;;;;;;;5.00;3.80;;;;;;;;;;5047747;28;20584;-41
2022/10/06 04:23:36;;;;;;;4.27;3.70;;;;;;;;;;5030758;28;20207;-41
2022/10/06 04:26:05;;;;;;;5.67;3.47;;;;;;;;;;5039030;28;20251;-41
2022/10/06 04:28:32;;;;;;;3.10;2.80;;;;;;;;;;5033277;28;20214;-43
2022/10/06 04:31:00;;;;;;;4.63;2.67;;;;;;;;;;5036608;28;20230;-43
2022/10/06 04:33:33;;;;;;;3.00;2.73;;;;;;;;;;5031192;28;20210;-41
2022/10/06 04:36:00;;;;;;;4.90;2.83;;;;;;;;;;5036396;28;20202;-45
2022/10/06 04:38:28;;;;;;;2.87;2.67;;;;;;;;;;5048876;28;20198;-43
2022/10/06 04:40:56;;;;;;;2.47;2.27;;;;;;;;;;5049084;28;20222;-42
2022/10/06 04:43:23;;;;;;;3.83;2.87;;;;;;;;;;5033724;28;20298;-45
2022/10/06 04:45:56;;;;;;;3.00;2.73;;;;;;;;;;5040094;28;20239;-45
2022/10/06 04:48:23;;;;;;;3.47;3.13;;;;;;;;;;5039970;28;20313;-41
2022/10/06 04:50:55;;;;;;;4.07;3.77;;;;;;;;;;5036816;28;20321;-38
2022/10/06 04:53:22;;;;;;;3.43;2.90;;;;;;;;;;5048269;28;20214;-45
2022/10/06 04:55:57;;;;;;;3.73;3.00;;;;;;;;;;5037930;28;20217;-42
2022/10/06 04:58:25;;;;;;;2.63;2.43;;;;;;;;;;5030532;28;20203;-41
2022/10/06 05:00:52;;;;;;;3.20;2.90;;;;;;;;;;5043959;28;20222;-43
2022/10/06 05:03:19;;;;;;;2.73;2.53;;;;;;;;;;5039265;28;20216;-42
2022/10/06 05:05:46;;;;;;;7.10;3.07;;;;;;;;;;5034440;28;20209;-44
2022/10/06 05:08:15;;;;;;;3.87;3.03;;;;;;;;;;5048638;28;20199;-42
2022/10/06 05:10:42;;;;;;;2.93;2.63;;;;;;;;;;5040248;28;20314;-41
2022/10/06 05:13:11;;;;;;;3.17;2.77;;;;;;;;;;5032166;28;20206;-43
2022/10/06 05:15:39;;;;;;;3.20;2.43;;;;;;;;;;5045601;28;20230;-42
2022/10/06 05:18:06;;;;;;;2.70;2.50;;;;;;;;;;5038235;28;20209;-42
2022/10/06 05:20:33;;;;;;;2.93;2.73;;;;;;;;;;5040641;28;20249;-42
2022/10/06 05:23:00;;;;;;;2.97;2.77;;;;;;;;;;5051754;28;20198;-43
2022/10/06 05:25:29;;;;;;;3.00;2.70;;;;;;;;;;5052028;28;20206;-44
2022/10/06 05:27:56;;;;;;;4.13;2.90;;;;;;;;;;5043640;28;20214;-45
2022/10/06 05:30:23;;;;;;;3.23;2.70;;;;;;;;;;5046435;28;20226;-39
2022/10/06 05:32:51;;;;;;;6.40;2.97;;;;;;;;;;5041652;28;20226;-44
2022/10/06 05:35:20;;;;;;;2.83;2.63;;;;;;;;;;5041583;28;20238;-40
2022/10/06 05:37:47;;;;;;;4.57;2.90;;;;;;;;;;5039663;28;20205;-41
2022/10/06 05:40:14;;;;;;;2.67;2.47;;;;;;;;;;5038437;28;20225;-43
2022/10/06 05:42:42;;;;;;;3.10;2.60;;;;;;;;;;5042783;28;20224;-43
2022/10/06 05:45:10;;;;;;;4.67;2.90;;;;;;;;;;5040729;28;20198;-44
2022/10/06 05:47:37;;;;;;;3.57;3.03;;;;;;;;;;5039520;28;20202;-44
2022/10/06 05:50:05;;;;;;;3.77;2.90;;;;;;;;;;5039045;28;20226;-41
2022/10/06 05:52:32;;;;;;;2.87;2.40;;;;;;;;;;5053734;28;20232;-43
2022/10/06 05:54:59;;;;;;;2.97;2.60;;;;;;;;;;5054038;28;20209;-37
2022/10/06 05:57:26;;;;;;;3.70;3.20;;;;;;;;;;5051276;28;20207;-39
2022/10/06 05:59:54;;;;;;;3.93;3.43;;;;;;;;;;5038410;28;20226;-40
2022/10/06 06:02:21;;;;;;;6.67;3.80;;;;;;;;;;5043433;28;21247;-43
2022/10/06 06:04:49;;;;;;;4.43;3.63;;;;;;;;;;5038236;28;20217;-41
2022/10/06 06:07:16;;;;;;;5.20;4.70;;;;;;;;;;5045452;28;20289;-43
2022/10/06 06:09:43;;;;;;;4.30;3.90;;;;;;;;;;5049676;28;20242;-39
2022/10/06 06:12:10;;;;;;;7.40;4.03;;;;;;;;;;5042026;28;20226;-41
2022/10/06 06:17:23;;;;;;;3.53;3.23;;;;;;;;;;5038068;28;20209;-39
2022/10/06 06:19:50;;;;;;;5.33;3.30;;;;;;;;;;5047681;28;20332;-45
2022/10/06 06:22:17;;;;;;;8.97;3.27;;;;;;;;;;5053435;28;20198;-37
2022/10/06 06:24:44;;;;;;;3.27;3.00;;;;;;;;;;5053515;28;20209;-41
2022/10/06 06:27:11;;;;;;;3.63;3.33;;;;;;;;;;5049188;28;20202;-41
2022/10/06 06:29:39;;;;;;;4.43;3.63;;;;;;;;;;5045583;28;20222;-44
2022/10/06 06:32:07;;;;;;;6.77;3.33;;;;;;;;;;5044750;28;20244;-43
2022/10/06 06:34:35;;;;;;;4.33;3.30;;;;;;;;;;5052521;28;20236;-41
2022/10/06 06:37:02;;;;;;;5.23;3.37;;;;;;;;;;5035953;28;20202;-43
2022/10/06 06:39:29;;;;;;;3.80;3.40;;;;;;;;;;5032976;28;20210;-43
2022/10/06 06:41:56;;;;;;;3.37;3.03;;;;;;;;;;5033332;28;20206;-43
2022/10/06 06:44:24;;;;;;;5.33;3.37;;;;;;;;;;5033516;28;20656;-41
2022/10/06 06:46:51;;;;;;;3.83;3.40;;;;;;;;;;5034642;28;20214;-43
2022/10/06 06:49:19;;;;;;;5.63;3.30;;;;;;;;;;5038861;28;20203;-43
2022/10/06 06:51:49;;;;;;;6.07;3.27;;;;;;;;;;5038341;28;20233;-43
2022/10/06 06:54:17;;;;;;;3.50;3.07;;;;;;;;;;5032771;28;20194;-42
2022/10/06 06:56:44;;;;;;;3.83;3.53;;;;;;;;;;5041956;28;20208;-40
2022/10/06 06:59:12;;;;;;;2.80;2.60;;;;;;;;;;5050341;28;20209;-42
2022/10/06 07:01:43;;;;;;;3.53;3.10;;;;;;;;;;5043396;28;20199;-43
2022/10/06 07:04:10;;;;;;;4.13;3.27;;;;;;;;;;5046328;28;20285;-41
2022/10/06 07:06:38;;;;;;;4.30;3.30;;;;;;;;;;5043848;28;20281;-43
2022/10/06 07:09:07;;;;;;;3.57;3.27;;;;;;;;;;5052539;28;20212;-40
2022/10/06 07:11:35;;;;;;;5.07;3.40;;;;;;;;;;5049919;28;20261;-43
2022/10/06 07:14:04;;;;;;;9.13;3.50;;;;;;;;;;5044658;28;20217;-41
2022/10/06 07:25:10;;;;;;;4.60;3.57;;;;;;;;;;5052029;28;20173;-43
2022/10/06 07:27:40;;;;;;;3.63;3.33;;;;;;;;;;5036813;28;20207;-43
2022/10/06 07:30:08;;;;;;;4.87;3.07;;;;;;;;;;5039245;28;20245;-42
2022/10/06 07:32:36;;;;;;;8.33;3.60;;;;;;;;;;5041140;28;20313;-43
2022/10/06 07:35:05;;;;;;;4.77;3.20;;;;;;;;;;5043828;28;20210;-41
2022/10/06 07:37:34;;;;;;;4.77;3.50;;;;;;;;;;5043765;28;20794;-40
2022/10/06 07:40:03;;;;;;;5.07;3.60;;;;;;;;;;5048797;28;20221;-44
2022/10/06 07:42:46;;;;;;;5.60;3.40;;;;;;;;;;5051539;28;20204;-42
2022/10/06 07:47:58;;;;;;;5.23;3.37;;;;;;;;;;5043092;28;20209;-42
2022/10/06 07:50:25;;;;;;;7.83;3.90;;;;;;;;;;5035685;28;20233;-40
2022/10/06 07:52:53;;;;;;;5.07;3.57;;;;;;;;;;5031675;28;20233;-45
2022/10/06 07:55:21;;;;;;;3.97;3.30;;;;;;;;;;5032689;28;20524;-40
2022/10/06 07:57:49;;;;;;;4.90;3.50;;;;;;;;;;5042603;28;20208;-39
2022/10/06 08:00:19;;;;;;;4.33;3.53;;;;;;;;;;5032516;28;20223;-41
2022/10/06 08:02:47;;;;;;;8.33;3.60;;;;;;;;;;5037780;28;20251;-42
2022/10/06 08:05:14;;;;;;;6.17;3.63;;;;;;;;;;5042833;28;20268;-42
2022/10/06 08:07:41;;;;;;;4.33;3.60;;;;;;;;;;5038324;28;20211;-46
2022/10/06 08:10:09;;;;;;;5.23;3.70;;;;;;;;;;5031675;28;20232;-42
2022/10/06 08:12:39;;;;;;;6.53;3.73;;;;;;;;;;5040423;28;20237;-47
2022/10/06 08:15:07;;;;;;;4.73;3.43;;;;;;;;;;5040822;28;20202;-41
2022/10/06 08:17:34;;;;;;;6.43;3.90;;;;;;;;;;5036206;28;20278;-43
2022/10/06 08:20:01;;;;;;;4.10;3.70;;;;;;;;;;5030831;28;20223;-42
2022/10/06 08:22:28;;;;;;;3.77;3.47;;;;;;;;;;5051565;28;20198;-44
2022/10/06 08:24:56;;;;;;;5.53;3.33;;;;;;;;;;5046740;28;20264;-43
2022/10/06 08:27:24;;;;;;;4.47;3.33;;;;;;;;;;5041762;28;20266;-42
2022/10/06 08:29:53;;;;;;;6.97;3.87;;;;;;;;;;5044232;28;20236;-44
2022/10/06 08:32:20;;;;;;;5.17;3.27;;;;;;;;;;5043201;28;20248;-44
2022/10/06 08:34:47;;;;;;;3.80;3.20;;;;;;;;;;5040524;28;20285;-42
2022/10/06 08:37:16;;;;;;;8.07;3.40;;;;;;;;;;5041931;28;20217;-39
2022/10/06 08:39:43;;;;;;;6.00;3.03;;;;;;;;;;5048512;28;20237;-44
2022/10/06 08:42:13;;;;;;;4.77;3.10;;;;;;;;;;5045334;28;20206;-45
2022/10/06 08:44:41;;;;;;;5.20;3.70;;;;;;;;;;5048846;28;20210;-41
2022/10/06 08:47:13;;;;;;;8.70;3.10;;;;;;;;;;5052266;28;20239;-44
2022/10/06 08:49:43;;;;;;;5.83;3.40;;;;;;;;;;5052988;28;20229;-43
2022/10/06 08:52:16;;;;;;;5.77;3.83;;;;;;;;;;5049332;28;20322;-44
2022/10/06 08:54:47;;;;;;;5.40;3.50;;;;;;;;;;5054140;28;20214;-44
2022/10/06 08:57:18;;;;;;;3.30;3.00;;;;;;;;;;5045427;28;20200;-38
2022/10/06 08:59:47;;;;;;;6.17;3.40;;;;;;;;;;5051686;28;20216;-44
2022/10/06 09:02:20;;;;;;;3.93;3.20;;;;;;;;;;5048523;28;20214;-42
2022/10/06 09:04:49;;;;;;;6.13;4.30;;;;;;;;;;5048056;28;20198;-42
2022/10/06 09:07:21;;;;;;;4.83;3.63;;;;;;;;;;5050671;28;20202;-43
2022/10/06 09:09:57;;;;;;;10.83;6.27;;;;;;;;;;5050113;28;20222;-38
2022/10/06 09:12:27;;;;;;;15.73;6.27;;;;;;;;;;5051290;28;20230;-43
2022/10/06 09:14:56;;;;;;;6.87;3.77;;;;;;;;;;5054414;28;20220;-44
2022/10/06 09:17:27;;;;;;;5.00;3.57;;;;;;;;;;5049503;28;20233;-44
2022/10/06 09:19:56;;;;;;;5.33;3.53;;;;;;;;;;5052430;28;20229;-43
2022/10/06 09:22:31;;;;;;;3.90;2.90;;;;;;;;;;5053439;28;20210;-42
2022/10/06 09:25:01;;;;;;;3.47;3.07;;;;;;;;;;5049057;28;20207;-41
2022/10/06 09:27:32;;;;;;;4.43;3.40;;;;;;;;;;5049357;28;20202;-44
2022/10/06 09:30:00;;;;;;;5.37;3.30;;;;;;;;;;5047476;28;20230;-44
2022/10/06 09:32:29;;;;;;;10.33;4.60;;;;;;;;;;5040487;28;20226;-45
2022/10/06 09:34:58;;;;;;;5.43;4.67;;;;;;;;;;5043822;28;20210;-43
2022/10/06 09:37:26;;;;;;;4.23;3.20;;;;;;;;;;5044760;28;20291;-38
2022/10/06 09:39:53;;;;;;;4.60;3.90;;;;;;;;;;5042002;28;20222;-38
2022/10/06 09:42:22;;;;;;;4.50;3.87;;;;;;;;;;5040431;28;20206;-41
2022/10/06 09:44:59;;;;;;;8.33;5.40;;;;;;;;;;5044100;28;20234;-41
2022/10/06 09:47:34;;;;;;;7.83;5.07;;;;;;;;;;5043181;28;20229;-45
2022/10/06 09:50:03;;;;;;;10.83;5.23;;;;;;;;;;5043590;28;20231;-44
2022/10/06 09:52:30;;;;;;;8.37;4.07;;;;;;;;;;5040811;28;20291;-45
2022/10/06 09:55:05;;;;;;;6.57;3.20;;;;;;;;;;5041155;28;20202;-45
2022/10/06 09:57:33;;;;;;;7.13;3.53;;;;;;;;;;5039738;28;20292;-45
2022/10/06 10:00:02;;;;;;;5.80;3.37;;;;;;;;;;5044780;28;20223;-44
2022/10/06 10:02:35;;;;;;;9.17;3.57;;;;;;;;;;5035208;28;20203;-44
2022/10/06 10:05:03;;;;;;;3.50;3.00;;;;;;;;;;5044453;28;20661;-46
2022/10/06 10:07:32;;;;;;;7.00;3.27;;;;;;;;;;5033898;28;20203;-44
2022/10/06 10:10:18;;;;;;;5.23;4.00;;;;;;;;;;5046186;28;20236;-40
2022/10/06 10:12:50;;;;;;;3.47;2.90;;;;;;;;;;5044861;28;20248;-44
2022/10/06 10:15:28;;;;;;;3.07;2.77;;;;;;;;;;5042094;28;20270;-40
2022/10/06 10:20:28;;;;;;;4.87;2.53;;;;;;;;;;5031254;28;20229;-47
2022/10/06 10:22:56;;;;;;;5.57;2.00;;;;;;;;;;5046292;28;20185;-46
2022/10/06 10:25:44;;;;;;;3.40;1.87;;;;;;;;;;5045997;28;20198;-44
2022/10/06 10:28:19;;;;;;;3.90;1.57;;;;;;;;;;5023140;28;20228;-45
2022/10/06 10:30:49;;;;;;;2.80;1.90;;;;;;;;;;5042598;28;20214;-42
2022/10/06 10:33:19;;;;;;;4.70;2.30;;;;;;;;;;5041930;28;20222;-45
2022/10/06 10:35:51;;;;;;;3.10;1.33;;;;;;;;;;5039913;28;20197;-45
2022/10/06 10:38:20;;;;;;;5.10;1.80;;;;;;;;;;5045137;28;20216;-40
2022/10/06 10:40:50;;;;;;;2.67;1.20;;;;;;;;;;5049752;28;20243;-40
2022/10/06 10:43:24;;;;;;;2.30;1.40;;;;;;;;;;5048650;28;20204;-42
2022/10/06 10:45:53;;;;;;;4.83;1.67;;;;;;;;;;5034901;28;20234;-44
2022/10/06 10:48:23;;;;;;;2.57;1.17;;;;;;;;;;5042584;28;20212;-42
2022/10/06 10:50:55;;;;;;;4.73;1.40;;;;;;;;;;5041261;28;20222;-46
2022/10/06 10:53:27;;;;;;;2.67;1.20;;;;;;;;;;5047171;28;20263;-45
2022/10/06 10:55:54;;;;;;;1.50;1.07;;;;;;;;;;5044794;28;20212;-45
2022/10/06 10:58:24;;;;;;;2.23;0.93;;;;;;;;;;5043575;28;20202;-44
2022/10/06 11:00:54;;;;;;;2.83;1.60;;;;;;;;;;5044980;28;20221;-44
2022/10/06 11:03:21;;;;;;;9.07;2.30;;;;;;;;;;5041645;28;20198;-44
2022/10/06 11:06:06;;;;;;;3.17;1.00;;;;;;;;;;5046057;28;20421;-41
2022/10/06 11:08:36;;;;;;;1.87;0.97;;;;;;;;;;5047638;28;20200;-44
2022/10/06 11:11:05;;;;;;;0.90;0.90;;;;;;;;;;5045441;28;20222;-43
2022/10/06 11:13:36;;;;;;;3.27;1.27;;;;;;;;;;5040210;28;20693;-42
2022/10/06 11:16:09;;;;;;;3.67;1.30;;;;;;;;;;5044733;28;20205;-47
2022/10/06 11:18:43;;;;;;;6.67;1.30;;;;;;;;;;5038357;28;20210;-45
2022/10/06 11:21:13;;;;;;;2.60;1.10;;;;;;;;;;5037524;28;20226;-45
2022/10/06 11:23:45;;;;;;;4.60;1.30;;;;;;;;;;5029902;28;20298;-44
2022/10/06 11:26:20;;;;;;;5.40;1.20;;;;;;;;;;5037551;28;20208;-45
2022/10/06 11:28:49;;;;;;;2.73;1.30;;;;;;;;;;5035244;28;20197;-45
2022/10/06 11:31:22;;;;;;;1.87;1.33;;;;;;;;;;5031440;28;20246;-44
2022/10/06 11:33:51;;;;;;;2.53;1.40;;;;;;;;;;5039234;28;20313;-43
2022/10/06 11:36:26;;;;;;;5.77;1.80;;;;;;;;;;5048876;28;20229;-42
2022/10/06 11:38:56;;;;;;;4.13;1.27;;;;;;;;;;5049524;28;20296;-42
2022/10/06 11:41:26;;;;;;;4.77;1.23;;;;;;;;;;5041673;28;20252;-44
2022/10/06 11:43:59;;;;;;;3.20;1.57;;;;;;;;;;5029533;28;20209;-43
2022/10/06 11:46:29;;;;;;;1.20;1.10;;;;;;;;;;5047023;28;20206;-44
2022/10/06 11:49:11;;;;;;;1.13;1.10;;;;;;;;;;5040441;28;20302;-44
2022/10/06 11:51:40;;;;;;;2.87;1.10;;;;;;;;;;5032977;28;20202;-45
2022/10/06 11:54:30;;;;;;;2.23;1.00;;;;;;;;;;5049706;28;20228;-44
2022/10/06 11:56:57;;;;;;;3.13;1.33;;;;;;;;;;5036234;28;20211;-45
2022/10/06 11:59:26;;;;;;;2.57;1.03;;;;;;;;;;5038472;28;20213;-43
2022/10/06 12:01:55;;;;;;;6.23;1.20;;;;;;;;;;5036753;28;20198;-43
2022/10/06 12:04:25;;;;;;;4.03;1.40;;;;;;;;;;5031332;28;20207;-45
2022/10/06 12:07:00;;;;;;;2.23;0.83;;;;;;;;;;5042903;28;20198;-45
2022/10/06 12:09:32;;;;;;;9.47;2.23;;;;;;;;;;5027572;28;20202;-44
2022/10/06 12:11:59;;;;;;;2.17;1.00;;;;;;;;;;5041548;28;20208;-44
2022/10/06 12:14:31;;;;;;;3.00;1.00;;;;;;;;;;5039957;28;20214;-45
2022/10/06 12:17:02;;;;;;;4.10;1.00;;;;;;;;;;5045244;28;20210;-44
2022/10/06 12:19:32;;;;;;;1.57;0.80;;;;;;;;;;5032108;28;20218;-44
2022/10/06 12:22:07;;;;;;;1.40;0.97;;;;;;;;;;5032979;28;20217;-45
2022/10/06 12:24:40;;;;;;;3.10;1.00;;;;;;;;;;5033603;28;20292;-39
2022/10/06 12:27:16;;;;;;;2.57;0.93;;;;;;;;;;5039694;28;20296;-43
2022/10/06 12:29:46;;;;;;;2.47;0.97;;;;;;;;;;5039210;28;20226;-42
2022/10/06 12:32:21;;;;;;;2.20;0.80;;;;;;;;;;5033186;28;20232;-42
2022/10/06 12:34:59;;;;;;;2.10;1.17;;;;;;;;;;5041238;28;20241;-45
2022/10/06 12:37:43;;;;;;;3.60;0.97;;;;;;;;;;5032818;28;20206;-43
2022/10/06 12:40:28;;;;;;;3.00;1.00;;;;;;;;;;5032937;28;20234;-43
2022/10/06 12:43:10;;;;;;;2.07;1.00;;;;;;;;;;5041475;28;20208;-43
2022/10/06 12:45:38;;;;;;;1.13;1.03;;;;;;;;;;5039903;28;20203;-44
2022/10/06 12:48:07;;;;;;;5.37;1.70;;;;;;;;;;5036483;28;20206;-47
2022/10/06 12:50:34;;;;;;;3.10;1.77;;;;;;;;;;5035273;28;20258;-42
2022/10/06 12:53:05;;;;;;;3.87;1.10;;;;;;;;;;5048482;28;20202;-41
2022/10/06 12:55:43;;;;;;;3.20;0.97;;;;;;;;;;5052490;28;20210;-45
2022/10/06 12:58:17;;;;;;;2.70;1.13;;;;;;;;;;5038980;28;20210;-45
2022/10/06 13:00:44;;;;;;;1.97;1.20;;;;;;;;;;5051978;28;20221;-45
2022/10/06 13:03:16;;;;;;;2.17;1.10;;;;;;;;;;5045687;28;20212;-45
2022/10/06 13:05:49;;;;;;;4.90;1.50;;;;;;;;;;5043397;28;20317;-43
2022/10/06 13:08:23;;;;;;;2.03;1.17;;;;;;;;;;5034269;28;20214;-43
2022/10/06 13:10:51;;;;;;;6.83;1.40;;;;;;;;;;5032523;28;20234;-45
2022/10/06 13:13:23;;;;;;;2.70;1.07;;;;;;;;;;5040353;28;20213;-41
2022/10/06 13:15:50;;;;;;;3.67;1.33;;;;;;;;;;5052437;28;20294;-45
2022/10/06 13:18:18;;;;;;;3.20;1.20;;;;;;;;;;5038294;28;20206;-45
2022/10/06 13:20:48;;;;;;;2.73;1.00;;;;;;;;;;5037361;28;20237;-41
2022/10/06 13:23:27;;;;;;;4.73;1.23;;;;;;;;;;5034377;28;20207;-46
2022/10/06 13:25:56;;;;;;;8.03;1.77;;;;;;;;;;5032051;28;20211;-43
2022/10/06 13:28:25;;;;;;;1.30;0.97;;;;;;;;;;5039791;28;20207;-40
2022/10/06 13:30:53;;;;;;;2.77;1.00;;;;;;;;;;5045540;28;20236;-41
2022/10/06 13:33:21;;;;;;;4.40;0.90;;;;;;;;;;5046250;28;20206;-44
2022/10/06 13:35:50;;;;;;;3.33;1.60;;;;;;;;;;5036412;28;20199;-43
2022/10/06 13:38:17;;;;;;;2.47;0.70;;;;;;;;;;5032020;28;20207;-43
2022/10/06 13:40:46;;;;;;;5.80;1.03;;;;;;;;;;5032135;28;20221;-43
2022/10/06 13:43:17;;;;;;;3.07;1.40;;;;;;;;;;5040673;28;20206;-40
2022/10/06 13:45:45;;;;;;;1.57;1.20;;;;;;;;;;5039837;28;20206;-42
2022/10/06 13:48:14;;;;;;;3.03;1.37;;;;;;;;;;5035178;28;20202;-46
2022/10/06 13:50:45;;;;;;;2.67;1.20;;;;;;;;;;5031504;28;20222;-44
2022/10/06 13:53:23;;;;;;;2.47;1.30;;;;;;;;;;5031578;28;20217;-43
2022/10/06 13:55:52;;;;;;;8.80;1.70;;;;;;;;;;5031968;28;20214;-43
2022/10/06 13:58:21;;;;;;;3.10;1.50;;;;;;;;;;5037397;28;20202;-46
2022/10/06 14:00:54;;;;;;;3.90;1.00;;;;;;;;;;5040899;28;20237;-46
2022/10/06 14:03:23;;;;;;;3.47;1.27;;;;;;;;;;5044651;28;20214;-46
2022/10/06 14:05:51;;;;;;;6.17;1.23;;;;;;;;;;5047305;28;20266;-42
2022/10/06 14:08:23;;;;;;;2.00;1.03;;;;;;;;;;5034178;28;20293;-43
2022/10/06 14:10:52;;;;;;;2.10;0.90;;;;;;;;;;5032571;28;20270;-45
2022/10/06 14:13:21;;;;;;;4.00;1.37;;;;;;;;;;5039882;28;20206;-44
2022/10/06 14:15:50;;;;;;;2.00;1.27;;;;;;;;;;5048133;28;20309;-46
2022/10/06 14:18:22;;;;;;;2.70;1.23;;;;;;;;;;5042474;28;20287;-44
2022/10/06 14:20:50;;;;;;;4.20;1.23;;;;;;;;;;5037886;28;20310;-43
2022/10/06 14:23:40;;;;;;;2.60;1.17;;;;;;;;;;5035463;28;20207;-39
2022/10/06 14:26:09;;;;;;;2.67;1.00;;;;;;;;;;5036789;28;20221;-45
2022/10/06 14:28:37;;;;;;;3.43;1.40;;;;;;;;;;5041208;28;20203;-44
2022/10/06 14:31:05;;;;;;;2.80;1.10;;;;;;;;;;5044178;28;20310;-42
2022/10/06 14:33:32;;;;;;;3.83;1.37;;;;;;;;;;5049780;28;20210;-43
2022/10/06 14:36:00;;;;;;;3.97;1.03;;;;;;;;;;5033210;28;20211;-45
2022/10/06 14:38:27;;;;;;;6.27;1.40;;;;;;;;;;5053327;28;20229;-42
2022/10/06 14:40:54;;;;;;;6.40;1.20;;;;;;;;;;5053288;28;20225;-40
2022/10/06 14:43:23;;;;;;;2.90;1.20;;;;;;;;;;5042602;28;20224;-42
2022/10/06 14:45:51;;;;;;;6.33;1.30;;;;;;;;;;5033054;28;20207;-42
2022/10/06 14:48:18;;;;;;;3.33;1.17;;;;;;;;;;5036757;28;20205;-44
2022/10/06 14:50:45;;;;;;;6.37;1.50;;;;;;;;;;5038956;28;20225;-43
2022/10/06 14:53:15;;;;;;;1.70;1.13;;;;;;;;;;5033398;28;20211;-43
2022/10/06 14:55:42;;;;;;;3.40;1.10;;;;;;;;;;5036895;28;20268;-42
2022/10/06 14:58:09;;;;;;;3.10;1.20;;;;;;;;;;5036929;28;20265;-46
2022/10/06 15:00:41;;;;;;;5.43;1.00;;;;;;;;;;5050078;28;20317;-37
2022/10/06 15:03:08;;;;;;;4.20;1.10;;;;;;;;;;5040703;28;20213;-44
2022/10/06 15:08:08;;;;;;;2.50;0.80;;;;;;;;;;5046429;28;20194;-44
2022/10/06 15:08:23;;;;;;;3.77;1.33;;;;;;;;;;5049528;28;20217;-43
2022/10/06 15:10:53;;;;;;;4.13;1.07;;;;;;;;;;5047180;28;20230;-41
2022/10/06 15:13:20;;;;;;;2.73;0.90;;;;;;;;;;5032508;28;20203;-41
2022/10/06 15:15:49;;;;;;;3.23;1.10;;;;;;;;;;5038361;28;20222;-45